createdAt,value
2016-10-25T00:00:15.035Z,1006.39
2016-10-25T00:00:55.746Z,1006.4
2016-10-25T00:01:36.417Z,1006.38
2016-10-25T00:02:17.067Z,1006.42
2016-10-25T00:02:57.762Z,1006.42
2016-10-25T00:03:38.432Z,1006.39
2016-10-25T00:04:19.130Z,1006.41
2016-10-25T00:04:59.779Z,1006.43
2016-10-25T00:05:40.474Z,1006.43
2016-10-25T00:06:21.116Z,1006.4
2016-10-25T00:07:01.780Z,1006.37
2016-10-25T00:07:42.502Z,1006.36
2016-10-25T00:08:23.145Z,1006.38
2016-10-25T00:09:03.884Z,1006.34
2016-10-25T00:09:44.577Z,1006.29
2016-10-25T00:10:25.266Z,1006.31
2016-10-25T00:11:05.920Z,1006.27
2016-10-25T00:11:46.607Z,1006.29
2016-10-25T00:12:27.288Z,1006.3
2016-10-25T00:13:07.963Z,1006.25
2016-10-25T00:13:48.619Z,1006.24
2016-10-25T00:14:29.304Z,1006.23
2016-10-25T00:15:09.973Z,1006.23
2016-10-25T00:15:50.673Z,1006.28
2016-10-25T00:16:31.364Z,1006.28
2016-10-25T00:17:12.016Z,1006.28
2016-10-25T00:17:52.705Z,1006.3
2016-10-25T00:18:33.345Z,1006.28
2016-10-25T00:19:14.083Z,1006.33
2016-10-25T00:19:54.728Z,1006.34
2016-10-25T00:20:35.423Z,1006.32
2016-10-25T00:21:16.136Z,1006.33
2016-10-25T00:21:56.807Z,1006.36
2016-10-25T00:22:37.502Z,1006.35
2016-10-25T00:23:18.181Z,1006.39
2016-10-25T00:23:58.845Z,1006.37
2016-10-25T00:24:39.491Z,1006.31
2016-10-25T00:25:20.175Z,1006.32
2016-10-25T00:26:00.884Z,1006.28
2016-10-25T00:26:41.593Z,1006.31
2016-10-25T00:27:22.292Z,1006.32
2016-10-25T00:28:03.022Z,1006.28
2016-10-25T00:28:43.740Z,1006.28
2016-10-25T00:29:24.426Z,1006.29
2016-10-25T00:30:05.151Z,1006.28
2016-10-25T00:30:45.858Z,1006.26
2016-10-25T00:31:26.566Z,1006.25
2016-10-25T00:32:07.198Z,1006.23
2016-10-25T00:32:47.881Z,1006.21
2016-10-25T00:33:28.571Z,1006.17
2016-10-25T00:34:09.271Z,1006.19
2016-10-25T00:34:49.972Z,1006.21
2016-10-25T00:35:30.649Z,1006.19
2016-10-25T00:36:11.340Z,1006.22
2016-10-25T00:36:52.044Z,1006.2
2016-10-25T00:37:32.823Z,1006.18
2016-10-25T00:38:13.494Z,1006.12
2016-10-25T00:38:54.173Z,1006.15
2016-10-25T00:39:34.862Z,1006.18
2016-10-25T00:40:15.532Z,1006.17
2016-10-25T00:40:56.215Z,1006.17
2016-10-25T00:41:36.887Z,1006.19
2016-10-25T00:42:17.599Z,1006.25
2016-10-25T00:42:58.308Z,1006.25
2016-10-25T00:43:38.988Z,1006.28
2016-10-25T00:44:19.668Z,1006.23
2016-10-25T00:45:00.357Z,1006.2
2016-10-25T00:45:41.072Z,1006.15
2016-10-25T00:46:21.776Z,1006.16
2016-10-25T00:47:02.480Z,1006.18
2016-10-25T00:47:43.169Z,1006.22
2016-10-25T00:48:23.865Z,1006.23
2016-10-25T00:49:04.590Z,1006.25
2016-10-25T00:49:45.266Z,1006.27
2016-10-25T00:50:25.927Z,1006.29
2016-10-25T00:51:06.607Z,1006.28
2016-10-25T00:51:47.308Z,1006.29
2016-10-25T00:52:27.975Z,1006.29
2016-10-25T00:53:08.656Z,1006.31
2016-10-25T00:53:49.369Z,1006.33
2016-10-25T00:54:30.050Z,1006.33
2016-10-25T00:55:10.695Z,1006.36
2016-10-25T00:55:51.406Z,1006.42
2016-10-25T00:56:32.076Z,1006.4
2016-10-25T00:57:12.766Z,1006.43
2016-10-25T00:57:53.460Z,1006.48
2016-10-25T00:58:34.126Z,1006.45
2016-10-25T00:59:14.826Z,1006.51
2016-10-25T00:59:55.519Z,1006.57
2016-10-25T01:00:36.197Z,1006.57
2016-10-25T01:01:16.907Z,1006.56
2016-10-25T01:01:57.582Z,1006.53
2016-10-25T01:02:38.256Z,1006.55
2016-10-25T01:03:18.951Z,1006.57
2016-10-25T01:03:59.635Z,1006.57
2016-10-25T01:04:40.314Z,1006.55
2016-10-25T01:05:21.017Z,1006.58
2016-10-25T01:06:01.707Z,1006.52
2016-10-25T01:06:42.381Z,1006.49
2016-10-25T01:07:23.073Z,1006.51
2016-10-25T01:08:03.728Z,1006.48
2016-10-25T01:08:44.458Z,1006.5
2016-10-25T01:09:25.127Z,1006.55
2016-10-25T01:10:05.815Z,1006.52
2016-10-25T01:10:46.466Z,1006.55
2016-10-25T01:11:27.180Z,1006.56
2016-10-25T01:12:07.871Z,1006.6
2016-10-25T01:12:48.593Z,1006.62
2016-10-25T01:13:29.270Z,1006.61
2016-10-25T01:14:09.935Z,1006.61
2016-10-25T01:14:50.653Z,1006.64
2016-10-25T01:15:31.372Z,1006.63
2016-10-25T01:16:12.025Z,1006.63
2016-10-25T01:16:52.689Z,1006.67
2016-10-25T01:17:33.385Z,1006.69
2016-10-25T01:18:14.064Z,1006.7
2016-10-25T01:18:54.808Z,1006.7
2016-10-25T01:19:35.487Z,1006.72
2016-10-25T01:20:16.181Z,1006.71
2016-10-25T01:20:56.852Z,1006.71
2016-10-25T01:21:37.563Z,1006.72
2016-10-25T01:22:18.273Z,1006.7
2016-10-25T01:22:58.938Z,1006.72
2016-10-25T01:23:39.639Z,1006.72
2016-10-25T01:24:20.319Z,1006.71
2016-10-25T01:25:00.993Z,1006.71
2016-10-25T01:25:41.696Z,1006.76
2016-10-25T01:26:22.357Z,1006.77
2016-10-25T01:27:03.060Z,1006.75
2016-10-25T01:27:43.749Z,1006.79
2016-10-25T01:28:24.468Z,1006.84
2016-10-25T01:29:05.202Z,1006.87
2016-10-25T01:29:45.892Z,1006.87
2016-10-25T01:30:26.592Z,1006.91
2016-10-25T01:31:07.268Z,1006.89
2016-10-25T01:31:47.933Z,1006.94
2016-10-25T01:32:28.606Z,1006.97
2016-10-25T01:33:09.273Z,1006.99
2016-10-25T01:33:49.971Z,1007.02
2016-10-25T01:34:30.675Z,1007.05
2016-10-25T01:35:11.388Z,1007.08
2016-10-25T01:35:52.116Z,1007.14
2016-10-25T01:36:32.819Z,1007.17
2016-10-25T01:37:13.508Z,1007.17
2016-10-25T01:37:54.208Z,1007.19
2016-10-25T01:38:34.895Z,1007.27
2016-10-25T01:39:15.584Z,1007.24
2016-10-25T01:39:56.339Z,1007.29
2016-10-25T01:40:37.016Z,1007.31
2016-10-25T01:41:17.730Z,1007.27
2016-10-25T01:41:58.388Z,1007.29
2016-10-25T01:42:39.115Z,1007.27
2016-10-25T01:43:19.824Z,1007.29
2016-10-25T01:44:00.511Z,1007.28
2016-10-25T01:44:41.223Z,1007.3
2016-10-25T01:45:21.916Z,1007.24
2016-10-25T01:46:02.587Z,1007.17
2016-10-25T01:46:43.278Z,1007.12
2016-10-25T01:47:23.989Z,1007.12
2016-10-25T01:48:04.693Z,1007.12
2016-10-25T01:48:45.373Z,1007.09
2016-10-25T01:49:26.056Z,1007.08
2016-10-25T01:50:06.758Z,1007.1
2016-10-25T01:50:47.415Z,1007.15
2016-10-25T01:51:28.093Z,1007.15
2016-10-25T01:52:08.836Z,1007.19
2016-10-25T01:52:49.492Z,1007.21
2016-10-25T01:53:30.215Z,1007.29
2016-10-25T01:54:10.895Z,1007.39
2016-10-25T01:54:51.563Z,1007.42
2016-10-25T01:55:32.291Z,1007.41
2016-10-25T01:56:12.982Z,1007.39
2016-10-25T01:56:53.600Z,1007.38
2016-10-25T01:57:34.275Z,1007.32
2016-10-25T01:58:14.945Z,1007.3
2016-10-25T01:58:55.642Z,1007.26
2016-10-25T01:59:36.320Z,1007.23
2016-10-25T02:00:16.983Z,1007.21
2016-10-25T02:00:57.669Z,1007.16
2016-10-25T02:01:38.330Z,1007.09
2016-10-25T02:02:19.066Z,1007.1
2016-10-25T02:02:59.763Z,1007.08
2016-10-25T02:03:40.474Z,1007.14
2016-10-25T02:04:21.126Z,1007.17
2016-10-25T02:05:01.798Z,1007.23
2016-10-25T02:05:42.490Z,1007.23
2016-10-25T02:06:23.172Z,1007.17
2016-10-25T02:07:03.846Z,1007.18
2016-10-25T02:07:44.568Z,1007.13
2016-10-25T02:08:25.267Z,1007.07
2016-10-25T02:09:05.941Z,1007.05
2016-10-25T02:09:46.627Z,1007.03
2016-10-25T02:10:27.330Z,1007.08
2016-10-25T02:11:08.054Z,1007.07
2016-10-25T02:11:48.787Z,1007.09
2016-10-25T02:12:29.452Z,1007.09
2016-10-25T02:13:10.163Z,1007.08
2016-10-25T02:13:50.844Z,1007.05
2016-10-25T02:14:31.556Z,1007.05
2016-10-25T02:15:12.254Z,1007.05
2016-10-25T02:15:52.981Z,1006.99
2016-10-25T02:16:33.698Z,1006.95
2016-10-25T02:17:14.355Z,1006.93
2016-10-25T02:17:54.989Z,1006.92
2016-10-25T02:18:35.669Z,1006.92
2016-10-25T02:19:16.372Z,1006.87
2016-10-25T02:19:57.014Z,1006.84
2016-10-25T02:20:37.687Z,1006.84
2016-10-25T02:21:18.401Z,1006.84
2016-10-25T02:21:59.098Z,1006.85
2016-10-25T02:22:39.769Z,1006.81
2016-10-25T02:23:20.442Z,1006.83
2016-10-25T02:24:01.140Z,1006.84
2016-10-25T02:24:41.851Z,1006.78
2016-10-25T02:25:22.517Z,1006.75
2016-10-25T02:26:03.193Z,1006.76
2016-10-25T02:26:43.893Z,1006.75
2016-10-25T02:27:24.577Z,1006.7
2016-10-25T02:28:05.291Z,1006.74
2016-10-25T02:28:45.947Z,1006.74
2016-10-25T02:29:26.661Z,1006.75
2016-10-25T02:30:07.366Z,1006.77
2016-10-25T02:30:48.078Z,1006.8
2016-10-25T02:31:28.782Z,1006.81
2016-10-25T02:32:09.479Z,1006.82
2016-10-25T02:32:50.167Z,1006.85
2016-10-25T02:33:30.803Z,1006.84
2016-10-25T02:34:11.474Z,1006.89
2016-10-25T02:34:52.179Z,1006.9
2016-10-25T02:35:32.869Z,1006.95
2016-10-25T02:36:13.591Z,1006.93
2016-10-25T02:36:54.286Z,1006.93
2016-10-25T02:37:34.940Z,1006.93
2016-10-25T02:38:15.602Z,1006.93
2016-10-25T02:38:56.311Z,1006.94
2016-10-25T02:39:37.006Z,1006.95
2016-10-25T02:40:17.677Z,1006.96
2016-10-25T02:40:58.400Z,1006.95
2016-10-25T02:41:39.129Z,1006.96
2016-10-25T02:42:19.762Z,1006.91
2016-10-25T02:43:00.489Z,1006.94
2016-10-25T02:43:41.177Z,1006.91
2016-10-25T02:44:21.869Z,1006.91
2016-10-25T02:45:02.603Z,1006.91
2016-10-25T02:45:43.268Z,1006.95
2016-10-25T02:46:23.963Z,1006.97
2016-10-25T02:47:04.653Z,1007.04
2016-10-25T02:47:45.383Z,1007.1
2016-10-25T02:48:26.044Z,1007.13
2016-10-25T02:49:06.746Z,1007.17
2016-10-25T02:49:47.429Z,1007.16
2016-10-25T02:50:28.070Z,1007.18
2016-10-25T02:51:08.783Z,1007.19
2016-10-25T02:51:49.484Z,1007.19
2016-10-25T02:52:30.170Z,1007.17
2016-10-25T02:53:10.863Z,1007.19
2016-10-25T02:53:51.564Z,1007.22
2016-10-25T02:54:32.234Z,1007.2
2016-10-25T02:55:12.912Z,1007.15
2016-10-25T02:55:53.599Z,1007.18
2016-10-25T02:56:34.277Z,1007.15
2016-10-25T02:57:14.956Z,1007.14
2016-10-25T02:57:55.647Z,1007.14
2016-10-25T02:58:36.275Z,1007.15
2016-10-25T02:59:16.916Z,1007.19
2016-10-25T02:59:57.611Z,1007.22
2016-10-25T03:00:38.292Z,1007.19
2016-10-25T03:01:18.961Z,1007.18
2016-10-25T03:01:59.657Z,1007.18
2016-10-25T03:02:40.345Z,1007.2
2016-10-25T03:03:21.031Z,1007.19
2016-10-25T03:04:01.695Z,1007.19
2016-10-25T03:04:42.367Z,1007.16
2016-10-25T03:05:23.040Z,1007.15
2016-10-25T03:06:03.804Z,1007.14
2016-10-25T03:06:44.519Z,1007.15
2016-10-25T03:07:25.178Z,1007.16
2016-10-25T03:08:05.873Z,1007.12
2016-10-25T03:08:46.551Z,1007.11
2016-10-25T03:09:27.226Z,1007.07
2016-10-25T03:10:07.896Z,1007.09
2016-10-25T03:10:48.584Z,1007.07
2016-10-25T03:11:29.286Z,1007.08
2016-10-25T03:12:09.976Z,1007.04
2016-10-25T03:12:50.686Z,1007.05
2016-10-25T03:13:31.418Z,1007.06
2016-10-25T03:14:12.141Z,1007.05
2016-10-25T03:14:52.828Z,1007.07
2016-10-25T03:15:34.269Z,1007.03
2016-10-25T03:16:14.953Z,1007.05
2016-10-25T03:16:55.655Z,1007.03
2016-10-25T03:17:36.392Z,1007
2016-10-25T03:18:17.044Z,1007.01
2016-10-25T03:18:57.762Z,1007.03
2016-10-25T03:19:38.450Z,1007.06
2016-10-25T03:20:19.144Z,1007.07
2016-10-25T03:20:59.886Z,1007.09
2016-10-25T03:21:40.544Z,1007.1
2016-10-25T03:22:21.220Z,1007.14
2016-10-25T03:23:01.899Z,1007.15
2016-10-25T03:23:42.627Z,1007.14
2016-10-25T03:24:23.328Z,1007.19
2016-10-25T03:25:04.033Z,1007.11
2016-10-25T03:25:44.669Z,1007.09
2016-10-25T03:26:25.326Z,1007.05
2016-10-25T03:27:05.988Z,1007.06
2016-10-25T03:27:46.708Z,1007.01
2016-10-25T03:28:27.347Z,1007
2016-10-25T03:29:08.028Z,1006.94
2016-10-25T03:29:48.704Z,1006.94
2016-10-25T03:30:29.368Z,1006.88
2016-10-25T03:31:10.062Z,1006.8
2016-10-25T03:31:50.777Z,1006.77
2016-10-25T03:32:31.452Z,1006.72
2016-10-25T03:33:12.152Z,1006.7
2016-10-25T03:33:52.866Z,1006.64
2016-10-25T03:34:33.547Z,1006.59
2016-10-25T03:35:14.257Z,1006.51
2016-10-25T03:35:54.938Z,1006.45
2016-10-25T03:36:35.662Z,1006.42
2016-10-25T03:37:16.396Z,1006.38
2016-10-25T03:37:57.076Z,1006.43
2016-10-25T03:38:37.783Z,1006.43
2016-10-25T03:39:18.499Z,1006.44
2016-10-25T03:39:59.219Z,1006.5
2016-10-25T03:40:39.927Z,1006.53
2016-10-25T03:41:20.587Z,1006.58
2016-10-25T03:42:01.305Z,1006.65
2016-10-25T03:42:41.962Z,1006.7
2016-10-25T03:43:22.702Z,1006.72
2016-10-25T03:44:03.392Z,1006.79
2016-10-25T03:44:44.076Z,1006.74
2016-10-25T03:45:24.757Z,1006.71
2016-10-25T03:46:05.433Z,1006.62
2016-10-25T03:46:46.102Z,1006.54
2016-10-25T03:47:26.805Z,1006.52
2016-10-25T03:48:07.449Z,1006.49
2016-10-25T03:48:48.155Z,1006.49
2016-10-25T03:49:28.813Z,1006.57
2016-10-25T03:50:09.487Z,1006.62
2016-10-25T03:50:50.162Z,1006.67
2016-10-25T03:51:30.887Z,1006.66
2016-10-25T03:52:11.568Z,1006.67
2016-10-25T03:52:52.272Z,1006.68
2016-10-25T03:53:32.987Z,1006.68
2016-10-25T03:54:13.683Z,1006.68
2016-10-25T03:54:54.340Z,1006.68
2016-10-25T03:55:35.038Z,1006.67
2016-10-25T03:56:15.755Z,1006.68
2016-10-25T03:56:56.432Z,1006.71
2016-10-25T03:57:37.126Z,1006.77
2016-10-25T03:58:17.807Z,1006.81
2016-10-25T03:58:58.466Z,1006.86
2016-10-25T03:59:39.122Z,1006.93
2016-10-25T04:00:19.810Z,1006.96
2016-10-25T04:01:00.484Z,1007.01
2016-10-25T04:01:41.163Z,1007.07
2016-10-25T04:02:21.896Z,1007.14
2016-10-25T04:03:02.533Z,1007.16
2016-10-25T04:03:43.200Z,1007.21
2016-10-25T04:04:23.900Z,1007.25
2016-10-25T04:05:04.565Z,1007.27
2016-10-25T04:05:45.248Z,1007.29
2016-10-25T04:06:25.954Z,1007.27
2016-10-25T04:07:06.656Z,1007.29
2016-10-25T04:07:47.329Z,1007.31
2016-10-25T04:08:28.006Z,1007.3
2016-10-25T04:09:08.709Z,1007.31
2016-10-25T04:09:49.391Z,1007.34
2016-10-25T04:10:30.074Z,1007.36
2016-10-25T04:11:10.725Z,1007.36
2016-10-25T04:11:51.445Z,1007.38
2016-10-25T04:12:32.140Z,1007.4
2016-10-25T04:13:12.814Z,1007.39
2016-10-25T04:13:53.517Z,1007.39
2016-10-25T04:14:34.223Z,1007.38
2016-10-25T04:15:14.906Z,1007.36
2016-10-25T04:15:55.603Z,1007.32
2016-10-25T04:16:36.239Z,1007.31
2016-10-25T04:17:16.905Z,1007.3
2016-10-25T04:17:57.589Z,1007.29
2016-10-25T04:18:38.274Z,1007.28
2016-10-25T04:19:18.892Z,1007.33
2016-10-25T04:19:59.580Z,1007.31
2016-10-25T04:20:40.223Z,1007.34
2016-10-25T04:21:20.909Z,1007.31
2016-10-25T04:22:01.602Z,1007.28
2016-10-25T04:22:42.309Z,1007.27
2016-10-25T04:23:22.933Z,1007.27
2016-10-25T04:24:03.650Z,1007.23
2016-10-25T04:24:44.337Z,1007.24
2016-10-25T04:25:24.991Z,1007.15
2016-10-25T04:26:05.694Z,1007.07
2016-10-25T04:26:46.360Z,1007.07
2016-10-25T04:27:27.066Z,1007.04
2016-10-25T04:28:07.740Z,1007.01
2016-10-25T04:28:48.415Z,1007
2016-10-25T04:29:29.077Z,1007.01
2016-10-25T04:30:09.823Z,1006.98
2016-10-25T04:30:50.533Z,1006.95
2016-10-25T04:31:31.217Z,1006.96
2016-10-25T04:32:11.911Z,1006.96
2016-10-25T04:32:52.585Z,1006.99
2016-10-25T04:33:33.262Z,1007.05
2016-10-25T04:34:13.963Z,1007.1
2016-10-25T04:34:54.639Z,1007.14
2016-10-25T04:35:35.327Z,1007.19
2016-10-25T04:36:16.064Z,1007.27
2016-10-25T04:36:56.769Z,1007.28
2016-10-25T04:37:37.478Z,1007.33
2016-10-25T04:38:18.206Z,1007.33
2016-10-25T04:38:58.893Z,1007.36
2016-10-25T04:39:39.568Z,1007.33
2016-10-25T04:40:20.295Z,1007.35
2016-10-25T04:41:00.970Z,1007.36
2016-10-25T04:41:41.666Z,1007.33
2016-10-25T04:42:22.332Z,1007.33
2016-10-25T04:43:03.008Z,1007.26
2016-10-25T04:43:43.739Z,1007.2
2016-10-25T04:44:24.417Z,1007.15
2016-10-25T04:45:05.059Z,1007.09
2016-10-25T04:45:45.749Z,1007
2016-10-25T04:46:26.421Z,1006.99
2016-10-25T04:47:07.055Z,1006.9
2016-10-25T04:47:47.761Z,1006.86
2016-10-25T04:48:28.414Z,1006.83
2016-10-25T04:49:09.082Z,1006.8
2016-10-25T04:49:49.725Z,1006.77
2016-10-25T04:50:30.415Z,1006.74
2016-10-25T04:51:11.119Z,1006.72
2016-10-25T04:51:51.784Z,1006.74
2016-10-25T04:52:32.455Z,1006.71
2016-10-25T04:53:13.148Z,1006.71
2016-10-25T04:53:53.855Z,1006.73
2016-10-25T04:54:34.577Z,1006.72
2016-10-25T04:55:15.241Z,1006.72
2016-10-25T04:55:55.939Z,1006.71
2016-10-25T04:56:36.596Z,1006.71
2016-10-25T04:57:17.240Z,1006.72
2016-10-25T04:57:57.955Z,1006.7
2016-10-25T04:58:38.645Z,1006.7
2016-10-25T04:59:19.303Z,1006.66
2016-10-25T04:59:59.952Z,1006.66
2016-10-25T05:00:40.622Z,1006.67
2016-10-25T05:01:21.330Z,1006.64
2016-10-25T05:02:02.063Z,1006.68
2016-10-25T05:02:42.781Z,1006.75
2016-10-25T05:03:23.481Z,1006.81
2016-10-25T05:04:04.121Z,1006.83
2016-10-25T05:04:44.822Z,1006.9
2016-10-25T05:05:25.501Z,1006.97
2016-10-25T05:06:06.193Z,1006.98
2016-10-25T05:06:46.905Z,1007.06
2016-10-25T05:07:27.625Z,1007.08
2016-10-25T05:08:08.323Z,1007.11
2016-10-25T05:08:48.998Z,1007.19
2016-10-25T05:09:29.712Z,1007.15
2016-10-25T05:10:10.379Z,1007.16
2016-10-25T05:10:51.033Z,1007.14
2016-10-25T05:11:31.708Z,1007.21
2016-10-25T05:12:12.405Z,1007.18
2016-10-25T05:12:53.057Z,1007.21
2016-10-25T05:13:33.754Z,1007.24
2016-10-25T05:14:14.460Z,1007.26
2016-10-25T05:14:55.101Z,1007.31
2016-10-25T05:15:35.828Z,1007.35
2016-10-25T05:16:16.526Z,1007.39
2016-10-25T05:16:57.225Z,1007.47
2016-10-25T05:17:37.967Z,1007.53
2016-10-25T05:18:18.643Z,1007.63
2016-10-25T05:18:59.348Z,1007.66
2016-10-25T05:19:40.042Z,1007.72
2016-10-25T05:20:20.701Z,1007.81
2016-10-25T05:21:01.392Z,1007.89
2016-10-25T05:21:42.060Z,1008.01
2016-10-25T05:22:22.736Z,1008.08
2016-10-25T05:23:03.418Z,1008.14
2016-10-25T05:23:44.113Z,1008.22
2016-10-25T05:24:24.803Z,1008.25
2016-10-25T05:25:05.486Z,1008.28
2016-10-25T05:25:46.117Z,1008.25
2016-10-25T05:26:26.820Z,1008.31
2016-10-25T05:27:07.528Z,1008.29
2016-10-25T05:27:48.198Z,1008.3
2016-10-25T05:28:28.909Z,1008.3
2016-10-25T05:29:09.583Z,1008.31
2016-10-25T05:29:50.255Z,1008.34
2016-10-25T05:30:30.937Z,1008.37
2016-10-25T05:31:11.651Z,1008.38
2016-10-25T05:31:52.286Z,1008.37
2016-10-25T05:32:32.997Z,1008.35
2016-10-25T05:33:13.690Z,1008.41
2016-10-25T05:33:54.330Z,1008.38
2016-10-25T05:34:35.053Z,1008.36
2016-10-25T05:35:15.706Z,1008.43
2016-10-25T05:35:56.420Z,1008.38
2016-10-25T05:36:37.093Z,1008.4
2016-10-25T05:37:17.741Z,1008.37
2016-10-25T05:37:58.407Z,1008.38
2016-10-25T05:38:39.126Z,1008.44
2016-10-25T05:39:19.846Z,1008.49
2016-10-25T05:40:00.525Z,1008.5
2016-10-25T05:40:41.261Z,1008.51
2016-10-25T05:41:21.956Z,1008.53
2016-10-25T05:42:02.637Z,1008.56
2016-10-25T05:42:43.376Z,1008.57
2016-10-25T05:43:24.085Z,1008.6
2016-10-25T05:44:04.773Z,1008.6
2016-10-25T05:44:45.480Z,1008.58
2016-10-25T05:45:26.236Z,1008.65
2016-10-25T05:46:06.881Z,1008.61
2016-10-25T05:46:47.613Z,1008.59
2016-10-25T05:47:28.294Z,1008.63
2016-10-25T05:48:08.985Z,1008.6
2016-10-25T05:48:49.694Z,1008.61
2016-10-25T05:49:30.355Z,1008.6
2016-10-25T05:50:11.066Z,1008.57
2016-10-25T05:50:51.748Z,1008.58
2016-10-25T05:51:32.455Z,1008.57
2016-10-25T05:52:13.156Z,1008.52
2016-10-25T05:52:53.885Z,1008.56
2016-10-25T05:53:34.535Z,1008.58
2016-10-25T05:54:15.200Z,1008.64
2016-10-25T05:54:55.865Z,1008.64
2016-10-25T05:55:36.578Z,1008.66
2016-10-25T05:56:17.293Z,1008.65
2016-10-25T05:56:57.976Z,1008.69
2016-10-25T05:57:38.689Z,1008.66
2016-10-25T05:58:19.359Z,1008.64
2016-10-25T05:59:00.019Z,1008.64
2016-10-25T05:59:40.658Z,1008.65
2016-10-25T06:00:21.353Z,1008.61
2016-10-25T06:01:02.033Z,1008.65
2016-10-25T06:01:42.714Z,1008.64
2016-10-25T06:02:23.405Z,1008.65
2016-10-25T06:03:04.086Z,1008.64
2016-10-25T06:03:44.761Z,1008.64
2016-10-25T06:04:25.477Z,1008.6
2016-10-25T06:05:06.209Z,1008.56
2016-10-25T06:05:46.889Z,1008.52
2016-10-25T06:06:27.542Z,1008.48
2016-10-25T06:07:08.270Z,1008.41
2016-10-25T06:07:48.992Z,1008.38
2016-10-25T06:08:29.703Z,1008.33
2016-10-25T06:09:10.576Z,1008.34
2016-10-25T06:09:51.298Z,1008.36
2016-10-25T06:10:31.969Z,1008.36
2016-10-25T06:11:13.112Z,1008.33
2016-10-25T06:11:53.785Z,1008.32
2016-10-25T06:12:34.548Z,1008.27
2016-10-25T06:13:15.313Z,1008.23
2016-10-25T06:13:55.988Z,1008.21
2016-10-25T06:14:36.683Z,1008.19
2016-10-25T06:15:17.359Z,1008.21
2016-10-25T06:15:58.051Z,1008.22
2016-10-25T06:16:38.792Z,1008.27
2016-10-25T06:17:19.463Z,1008.25
2016-10-25T06:18:00.185Z,1008.28
2016-10-25T06:18:40.852Z,1008.27
2016-10-25T06:19:21.543Z,1008.27
2016-10-25T06:20:02.233Z,1008.24
2016-10-25T06:20:42.934Z,1008.23
2016-10-25T06:21:23.625Z,1008.21
2016-10-25T06:22:04.292Z,1008.13
2016-10-25T06:22:44.983Z,1008.15
2016-10-25T06:23:25.653Z,1008.17
2016-10-25T06:24:06.330Z,1008.15
2016-10-25T06:24:47.033Z,1008.14
2016-10-25T06:25:27.678Z,1008.12
2016-10-25T06:26:08.348Z,1008.14
2016-10-25T06:26:49.051Z,1008.14
2016-10-25T06:27:29.704Z,1008.12
2016-10-25T06:28:10.446Z,1008.05
2016-10-25T06:28:51.103Z,1008.06
2016-10-25T06:29:31.754Z,1007.98
2016-10-25T06:30:12.447Z,1007.97
2016-10-25T06:30:53.176Z,1007.96
2016-10-25T06:31:33.885Z,1007.9
2016-10-25T06:32:14.562Z,1007.86
2016-10-25T06:32:55.290Z,1007.81
2016-10-25T06:33:35.987Z,1007.77
2016-10-25T06:34:16.666Z,1007.7
2016-10-25T06:34:57.400Z,1007.63
2016-10-25T06:35:38.142Z,1007.58
2016-10-25T06:36:18.821Z,1007.56
2016-10-25T06:36:59.510Z,1007.55
2016-10-25T06:37:40.243Z,1007.55
2016-10-25T06:38:20.895Z,1007.57
2016-10-25T06:39:01.614Z,1007.59
2016-10-25T06:39:42.310Z,1007.52
2016-10-25T06:40:23.032Z,1007.55
2016-10-25T06:41:03.724Z,1007.57
2016-10-25T06:41:44.406Z,1007.55
2016-10-25T06:42:25.146Z,1007.58
2016-10-25T06:43:05.848Z,1007.57
2016-10-25T06:43:46.593Z,1007.6
2016-10-25T06:44:27.284Z,1007.6
2016-10-25T06:45:08.006Z,1007.64
2016-10-25T06:45:48.715Z,1007.66
2016-10-25T06:46:29.421Z,1007.75
2016-10-25T06:47:10.102Z,1007.77
2016-10-25T06:47:50.825Z,1007.81
2016-10-25T06:48:31.542Z,1007.85
2016-10-25T06:49:12.220Z,1007.88
2016-10-25T06:49:52.890Z,1007.92
2016-10-25T06:50:33.568Z,1007.91
2016-10-25T06:51:14.255Z,1007.9
2016-10-25T06:51:54.927Z,1007.87
2016-10-25T06:52:35.633Z,1007.9
2016-10-25T06:53:16.358Z,1007.93
2016-10-25T06:53:57.112Z,1007.96
2016-10-25T06:54:37.776Z,1008
2016-10-25T06:55:18.482Z,1008
2016-10-25T06:55:59.236Z,1008.06
2016-10-25T06:56:39.972Z,1008.06
2016-10-25T06:57:20.708Z,1008.08
2016-10-25T06:58:01.417Z,1008.03
2016-10-25T06:58:42.158Z,1008.04
2016-10-25T06:59:22.899Z,1007.97
2016-10-25T07:00:03.600Z,1007.91
2016-10-25T07:00:44.372Z,1007.88
2016-10-25T07:01:25.195Z,1007.92
2016-10-25T07:02:05.977Z,1007.99
2016-10-25T07:02:46.805Z,1008.02
2016-10-25T07:03:27.557Z,1008.06
2016-10-25T07:04:08.319Z,1008.12
2016-10-25T07:04:49.076Z,1008.1
2016-10-25T07:05:29.863Z,1008.15
2016-10-25T07:06:10.650Z,1008.18
2016-10-25T07:06:51.471Z,1008.23
2016-10-25T07:07:32.268Z,1008.25
2016-10-25T07:08:13.054Z,1008.29
2016-10-25T07:08:53.822Z,1008.34
2016-10-25T07:09:34.566Z,1008.35
2016-10-25T07:10:15.306Z,1008.36
2016-10-25T07:10:56.069Z,1008.39
2016-10-25T07:11:36.796Z,1008.44
2016-10-25T07:12:17.584Z,1008.47
2016-10-25T07:12:58.328Z,1008.48
2016-10-25T07:13:39.082Z,1008.52
2016-10-25T07:14:19.808Z,1008.49
2016-10-25T07:15:00.582Z,1008.49
2016-10-25T07:15:41.384Z,1008.51
2016-10-25T07:16:22.215Z,1008.5
2016-10-25T07:17:03.026Z,1008.49
2016-10-25T07:17:43.810Z,1008.52
2016-10-25T07:18:24.548Z,1008.53
2016-10-25T07:19:05.247Z,1008.54
2016-10-25T07:19:46.037Z,1008.57
2016-10-25T07:20:26.778Z,1008.59
2016-10-25T07:21:07.611Z,1008.61
2016-10-25T07:21:48.431Z,1008.61
2016-10-25T07:22:29.187Z,1008.56
2016-10-25T07:23:09.916Z,1008.57
2016-10-25T07:23:50.655Z,1008.55
2016-10-25T07:24:31.460Z,1008.55
2016-10-25T07:25:12.227Z,1008.61
2016-10-25T07:25:52.959Z,1008.61
2016-10-25T07:26:33.768Z,1008.66
2016-10-25T07:27:14.567Z,1008.69
2016-10-25T07:27:55.332Z,1008.72
2016-10-25T07:28:36.133Z,1008.76
2016-10-25T07:29:16.872Z,1008.76
2016-10-25T07:29:57.629Z,1008.74
2016-10-25T07:30:38.377Z,1008.73
2016-10-25T07:31:19.178Z,1008.71
2016-10-25T07:31:59.935Z,1008.72
2016-10-25T07:32:40.708Z,1008.69
2016-10-25T07:33:21.450Z,1008.75
2016-10-25T07:34:02.235Z,1008.76
2016-10-25T07:34:43.012Z,1008.82
2016-10-25T07:35:23.773Z,1008.86
2016-10-25T07:36:04.538Z,1008.91
2016-10-25T07:36:45.321Z,1008.93
2016-10-25T07:37:26.065Z,1009.01
2016-10-25T07:38:06.796Z,1009.03
2016-10-25T07:38:47.576Z,1009.04
2016-10-25T07:39:28.353Z,1009.04
2016-10-25T07:40:09.113Z,1009.05
2016-10-25T07:40:49.877Z,1009.08
2016-10-25T07:41:30.666Z,1009.07
2016-10-25T07:42:11.441Z,1009.05
2016-10-25T07:42:52.792Z,1008.99
2016-10-25T07:43:33.610Z,1008.99
2016-10-25T07:44:14.390Z,1008.97
2016-10-25T07:44:55.173Z,1008.95
2016-10-25T07:45:36.001Z,1008.94
2016-10-25T07:46:16.760Z,1008.95
2016-10-25T07:46:58.141Z,1008.94
2016-10-25T07:47:38.999Z,1008.93
2016-10-25T07:48:19.729Z,1008.99
2016-10-25T07:49:00.472Z,1008.97
2016-10-25T07:49:41.266Z,1008.96
2016-10-25T07:50:22.045Z,1008.95
2016-10-25T07:51:02.819Z,1008.96
2016-10-25T07:51:43.618Z,1008.97
2016-10-25T07:52:24.404Z,1008.97
2016-10-25T07:53:05.855Z,1008.97
2016-10-25T07:53:45.976Z,1008.91
2016-10-25T07:54:27.359Z,1008.93
2016-10-25T07:55:08.116Z,1008.89
2016-10-25T07:55:48.856Z,1008.86
2016-10-25T07:56:29.634Z,1008.89
2016-10-25T07:57:10.432Z,1008.92
2016-10-25T07:57:51.211Z,1008.96
2016-10-25T07:58:31.976Z,1009.04
2016-10-25T07:59:12.745Z,1009.07
2016-10-25T07:59:53.511Z,1009.12
2016-10-25T08:00:34.304Z,1009.18
2016-10-25T08:01:15.048Z,1009.21
2016-10-25T08:01:55.806Z,1009.22
2016-10-25T08:02:36.604Z,1009.28
2016-10-25T08:03:17.987Z,1009.3
2016-10-25T08:03:58.760Z,1009.34
2016-10-25T08:04:39.567Z,1009.42
2016-10-25T08:05:20.401Z,1009.45
2016-10-25T08:06:01.189Z,1009.54
2016-10-25T08:06:41.924Z,1009.53
2016-10-25T08:07:22.661Z,1009.56
2016-10-25T08:08:03.447Z,1009.55
2016-10-25T08:08:44.283Z,1009.59
2016-10-25T08:09:25.046Z,1009.62
2016-10-25T08:10:07.363Z,1009.65
2016-10-25T08:10:48.185Z,1009.7
2016-10-25T08:11:28.984Z,1009.73
2016-10-25T08:12:09.769Z,1009.73
2016-10-25T08:12:50.618Z,1009.76
2016-10-25T08:13:31.412Z,1009.75
2016-10-25T08:14:12.355Z,1009.79